< < Back
Terminal Aerodrome Forecast


Current Version              Previous Versions:   1  2  3  4  5  6  7  8  9  

Terminal Aerodrome Forecast

304
FTUS42 KFFC 290334 AAB
TAFCSG
TAF AMD
KCSG 290334Z 2904/2924 24004KT P6SM FEW250
     FM291000 00000KT 3SM BR FEW250
     FM291300 00000KT P6SM FEW250
     FM291600 VRB03KT P6SM SCT050=

Latest METAR

467
SAUS70 KWBC 291200 RRA
MTRCSG
METAR KCSG 291151Z AUTO 00000KT 2 1/2SM BR SCT002 18/18 A3001 RMK AO2
SLP159 T01780178 10211 20178 51008


USA.gov is the U.S. government's official web portal to all federal, state and local government web resources and services.